TRA47Y GMTT-EHRD
Flight info
| Callsign | TRA47Y |
|---|---|
| Flight time | 2h 11m |
| Altitude | 18000 |
| Route | LAMAD M143 GALTO/N0459F360 N869 PIMOS DCT MGA DCT BLN DCT MORAL DCT BEXID DCT VTB DCT SIE DCT XERMA DCT ARLUN DCT BUGIX DCT UNGAS DCT DELOG DCT DIDIG DCT USODA DCT ERCUT DCT DITAL DCT ELCOB DCT PODEM DCT BAZOS DCT BELDI DCT VEKIN DCT ADUTO N873 FERDI Y18 DENUT |
| Aircraft | B738/M-SDE2E3FGHIRWXY/LB1 |
Departure
| Time | 2026-04-26 11:55 |
|---|---|
| Airport | Tangier Ibn Battuta Airport (GMTT) |
Arrival
| Time | 2026-04-26 14:07 |
|---|---|
| Airport | Rotterdam The Hague Airport (EHRD) |
| Time | Latitude | Longitude | Altitude | Speed | Heading |
|---|---|---|---|---|---|
| 2026-04-26 11:42 | 35.72509 | -5.91316 | 50 ft | 0 kts | 129° |
| 2026-04-26 11:50 | 35.72507 | -5.91313 | 50 ft | 3 kts | 130° |
| 2026-04-26 11:50 | 35.72455 | -5.91340 | 49 ft | 15 kts | 220° |
| 2026-04-26 11:50 | 35.72429 | -5.91501 | 46 ft | 21 kts | 268° |
| 2026-04-26 11:50 | 35.72479 | -5.91668 | 43 ft | 21 kts | 330° |
| 2026-04-26 11:51 | 35.72626 | -5.91695 | 42 ft | 21 kts | 356° |
| 2026-04-26 11:51 | 35.72768 | -5.91709 | 42 ft | 20 kts | 356° |
| 2026-04-26 11:51 | 35.72905 | -5.91722 | 42 ft | 18 kts | 351° |
| 2026-04-26 11:51 | 35.72958 | -5.91847 | 39 ft | 21 kts | 276° |
| 2026-04-26 11:52 | 35.72977 | -5.92061 | 36 ft | 27 kts | 277° |
| 2026-04-26 11:52 | 35.73000 | -5.92293 | 36 ft | 27 kts | 277° |
| 2026-04-26 11:52 | 35.73021 | -5.92528 | 34 ft | 28 kts | 276° |
| 2026-04-26 11:52 | 35.73043 | -5.92770 | 32 ft | 28 kts | 276° |
| 2026-04-26 11:53 | 35.73066 | -5.93015 | 31 ft | 28 kts | 276° |
| 2026-04-26 11:53 | 35.73089 | -5.93261 | 30 ft | 28 kts | 277° |
| 2026-04-26 11:53 | 35.73112 | -5.93507 | 29 ft | 29 kts | 276° |
| 2026-04-26 11:54 | 35.73157 | -5.93965 | 26 ft | 21 kts | 280° |
| 2026-04-26 11:54 | 35.73253 | -5.94049 | 28 ft | 15 kts | 2° |
| 2026-04-26 11:54 | 35.73329 | -5.93991 | 30 ft | 12 kts | 64° |
| 2026-04-26 11:54 | 35.73328 | -5.93866 | 30 ft | 26 kts | 96° |
| 2026-04-26 11:55 | 35.73277 | -5.93315 | 32 ft | 100 kts | 97° |
| 2026-04-26 11:55 | 35.73172 | -5.92200 | 40 ft | 159 kts | 96° |
| 2026-04-26 11:55 | 35.73028 | -5.90791 | 616 ft | 171 kts | 94° |
| 2026-04-26 11:55 | 35.72898 | -5.89386 | 1609 ft | 165 kts | 92° |
| 2026-04-26 11:56 | 35.72793 | -5.87992 | 2196 ft | 174 kts | 92° |
| 2026-04-26 11:56 | 35.72685 | -5.86482 | 2836 ft | 180 kts | 94° |
| 2026-04-26 11:56 | 35.72558 | -5.84912 | 3335 ft | 195 kts | 94° |
| 2026-04-26 11:56 | 35.72400 | -5.83125 | 3606 ft | 224 kts | 95° |
| 2026-04-26 11:57 | 35.72234 | -5.81252 | 4487 ft | 225 kts | 95° |
| 2026-04-26 11:57 | 35.72228 | -5.79225 | 4933 ft | 247 kts | 82° |
| 2026-04-26 11:57 | 35.72630 | -5.77150 | 5686 ft | 255 kts | 74° |
| 2026-04-26 11:57 | 35.73152 | -5.75050 | 6297 ft | 269 kts | 74° |
| 2026-04-26 11:58 | 35.73694 | -5.72823 | 7239 ft | 269 kts | 75° |
| 2026-04-26 11:58 | 35.74173 | -5.70692 | 8168 ft | 267 kts | 76° |
| 2026-04-26 11:58 | 35.74646 | -5.68419 | 8777 ft | 277 kts | 77° |
| 2026-04-26 11:58 | 35.75113 | -5.66114 | 9589 ft | 281 kts | 77° |
| 2026-04-26 11:59 | 35.75579 | -5.63745 | 10293 ft | 288 kts | 78° |
| 2026-04-26 11:59 | 35.76030 | -5.61378 | 11062 ft | 291 kts | 78° |
| 2026-04-26 11:59 | 35.76501 | -5.58896 | 11651 ft | 303 kts | 77° |
| 2026-04-26 11:59 | 35.77003 | -5.56349 | 12164 ft | 316 kts | 76° |
| 2026-04-26 12:00 | 35.77562 | -5.53630 | 12510 ft | 334 kts | 76° |
| 2026-04-26 12:00 | 35.78145 | -5.50832 | 12958 ft | 349 kts | 76° |
| 2026-04-26 12:00 | 35.78748 | -5.47861 | 13366 ft | 364 kts | 77° |
| 2026-04-26 12:00 | 35.79264 | -5.44740 | 13878 ft | 375 kts | 79° |
| 2026-04-26 12:01 | 35.79699 | -5.41585 | 14610 ft | 380 kts | 81° |
| 2026-04-26 12:01 | 35.80115 | -5.38362 | 15320 ft | 385 kts | 81° |
| 2026-04-26 12:01 | 35.80536 | -5.35100 | 16052 ft | 389 kts | 80° |
| 2026-04-26 12:01 | 35.80967 | -5.31815 | 16732 ft | 395 kts | 81° |
| 2026-04-26 12:02 | 35.81416 | -5.28460 | 17422 ft | 399 kts | 80° |
| 2026-04-26 12:02 | 35.81874 | -5.25072 | 17915 ft | 405 kts | 80° |
| 2026-04-26 12:02 | 35.82344 | -5.21628 | 18042 ft | 409 kts | 80° |
| 2026-04-26 12:02 | 35.82928 | -5.18247 | 18059 ft | 407 kts | 74° |
| 2026-04-26 12:03 | 35.84004 | -5.15067 | 18059 ft | 404 kts | 58° |
| 2026-04-26 12:03 | 35.85826 | -5.12431 | 18061 ft | 404 kts | 40° |
| 2026-04-26 12:03 | 35.88105 | -5.10429 | 18075 ft | 406 kts | 33° |
| 2026-04-26 12:03 | 35.90513 | -5.08556 | 18170 ft | 415 kts | 32° |
| 2026-04-26 12:04 | 35.92995 | -5.06662 | 18223 ft | 421 kts | 32° |
| 2026-04-26 12:04 | 35.95518 | -5.04729 | 18873 ft | 423 kts | 32° |
| 2026-04-26 12:04 | 35.97950 | -5.02848 | 19928 ft | 417 kts | 32° |
| 2026-04-26 12:04 | 36.00404 | -5.00935 | 20754 ft | 416 kts | 32° |
| 2026-04-26 12:05 | 36.02875 | -4.98998 | 21374 ft | 421 kts | 32° |
| 2026-04-26 12:05 | 36.05344 | -4.97054 | 21977 ft | 425 kts | 32° |
| 2026-04-26 12:05 | 36.07846 | -4.95080 | 22579 ft | 428 kts | 32° |
| 2026-04-26 12:05 | 36.10327 | -4.93118 | 23161 ft | 431 kts | 32° |
| 2026-04-26 12:06 | 36.12867 | -4.91107 | 23752 ft | 434 kts | 32° |
| 2026-04-26 12:06 | 36.15433 | -4.89073 | 24356 ft | 437 kts | 32° |
| 2026-04-26 12:06 | 36.17965 | -4.87075 | 24941 ft | 440 kts | 32° |
| 2026-04-26 12:06 | 36.20559 | -4.85041 | 25467 ft | 444 kts | 31° |
| 2026-04-26 12:07 | 36.23191 | -4.82985 | 26026 ft | 447 kts | 31° |
| 2026-04-26 12:07 | 36.25833 | -4.80922 | 26568 ft | 449 kts | 31° |
| 2026-04-26 12:07 | 36.28465 | -4.78865 | 27099 ft | 452 kts | 31° |
| 2026-04-26 12:07 | 36.31135 | -4.76775 | 27594 ft | 455 kts | 31° |
| 2026-04-26 12:08 | 36.33814 | -4.74676 | 28122 ft | 457 kts | 31° |
| 2026-04-26 12:08 | 36.36520 | -4.72553 | 28572 ft | 461 kts | 31° |
| 2026-04-26 12:08 | 36.39198 | -4.70448 | 29079 ft | 463 kts | 31° |
| 2026-04-26 12:08 | 36.41890 | -4.68330 | 29950 ft | 456 kts | 31° |
| 2026-04-26 12:09 | 36.44559 | -4.66228 | 30651 ft | 453 kts | 31° |
| 2026-04-26 12:09 | 36.47212 | -4.64136 | 31196 ft | 453 kts | 31° |
| 2026-04-26 12:09 | 36.49842 | -4.62060 | 31806 ft | 450 kts | 31° |
| 2026-04-26 12:09 | 36.52491 | -4.59968 | 32390 ft | 448 kts | 31° |
| 2026-04-26 12:10 | 36.55128 | -4.57884 | 32902 ft | 448 kts | 31° |
| 2026-04-26 12:10 | 36.57729 | -4.55827 | 33396 ft | 447 kts | 31° |
| 2026-04-26 12:10 | 36.60347 | -4.53752 | 33866 ft | 447 kts | 31° |
| 2026-04-26 12:10 | 36.62963 | -4.51679 | 34330 ft | 446 kts | 31° |
| 2026-04-26 12:11 | 36.65607 | -4.49583 | 34681 ft | 446 kts | 31° |
| 2026-04-26 12:11 | 36.68196 | -4.47528 | 34975 ft | 446 kts | 31° |
| 2026-04-26 12:11 | 36.70827 | -4.45439 | 35228 ft | 448 kts | 31° |
| 2026-04-26 12:11 | 36.73467 | -4.43340 | 35498 ft | 449 kts | 31° |
| 2026-04-26 12:12 | 36.76109 | -4.41238 | 35797 ft | 449 kts | 31° |
| 2026-04-26 12:12 | 36.78760 | -4.39136 | 36027 ft | 451 kts | 30° |
| 2026-04-26 12:12 | 36.81461 | -4.37118 | 36066 ft | 453 kts | 27° |
| 2026-04-26 12:13 | 36.87094 | -4.33691 | 36083 ft | 447 kts | 22° |
| 2026-04-26 12:13 | 36.92807 | -4.30608 | 36090 ft | 445 kts | 21° |
| 2026-04-26 12:14 | 36.98526 | -4.27555 | 36101 ft | 447 kts | 22° |
| 2026-04-26 12:14 | 37.04232 | -4.24470 | 36105 ft | 447 kts | 22° |
| 2026-04-26 12:15 | 37.09914 | -4.21368 | 36101 ft | 445 kts | 22° |
| 2026-04-26 12:15 | 37.15592 | -4.18248 | 36105 ft | 446 kts | 22° |
| 2026-04-26 12:16 | 37.21299 | -4.15102 | 36108 ft | 446 kts | 22° |
| 2026-04-26 12:16 | 37.26979 | -4.11965 | 36104 ft | 446 kts | 22° |
| 2026-04-26 12:17 | 37.32657 | -4.08822 | 36110 ft | 446 kts | 22° |
| 2026-04-26 12:17 | 37.38313 | -4.05685 | 36116 ft | 446 kts | 22° |
| 2026-04-26 12:18 | 37.44019 | -4.02516 | 36117 ft | 446 kts | 23° |
| 2026-04-26 12:18 | 37.49667 | -3.99373 | 36113 ft | 444 kts | 23° |
| 2026-04-26 12:19 | 37.55335 | -3.96216 | 36111 ft | 445 kts | 23° |
| 2026-04-26 12:19 | 37.60966 | -3.93074 | 36118 ft | 445 kts | 23° |
| 2026-04-26 12:20 | 37.66650 | -3.89897 | 36101 ft | 445 kts | 23° |
| 2026-04-26 12:20 | 37.72306 | -3.86730 | 36087 ft | 445 kts | 23° |
| 2026-04-26 12:21 | 37.77947 | -3.83567 | 36089 ft | 444 kts | 23° |
| 2026-04-26 12:21 | 37.83594 | -3.80395 | 36084 ft | 444 kts | 23° |
| 2026-04-26 12:22 | 37.89262 | -3.77204 | 36078 ft | 443 kts | 23° |
| 2026-04-26 12:22 | 37.94895 | -3.74026 | 36080 ft | 445 kts | 23° |
| 2026-04-26 12:23 | 38.00520 | -3.70850 | 36082 ft | 444 kts | 23° |
| 2026-04-26 12:23 | 38.06172 | -3.67654 | 36079 ft | 444 kts | 23° |
| 2026-04-26 12:24 | 38.11834 | -3.64502 | 36090 ft | 444 kts | 21° |
| 2026-04-26 12:24 | 38.17704 | -3.62261 | 36092 ft | 443 kts | 9° |
| 2026-04-26 12:25 | 38.26898 | -3.61100 | 36087 ft | 443 kts | 3° |
| 2026-04-26 12:25 | 38.33052 | -3.60619 | 36103 ft | 443 kts | 3° |
| 2026-04-26 12:26 | 38.39194 | -3.60107 | 36109 ft | 444 kts | 4° |
| 2026-04-26 12:26 | 38.45371 | -3.59549 | 36120 ft | 444 kts | 4° |
| 2026-04-26 12:27 | 38.51537 | -3.58966 | 36130 ft | 444 kts | 4° |
| 2026-04-26 12:27 | 38.57679 | -3.58373 | 36131 ft | 443 kts | 4° |
| 2026-04-26 12:28 | 38.63868 | -3.57771 | 36135 ft | 444 kts | 4° |
| 2026-04-26 12:28 | 38.69987 | -3.57174 | 36134 ft | 443 kts | 4° |
| 2026-04-26 12:29 | 38.76183 | -3.56568 | 36126 ft | 444 kts | 4° |
| 2026-04-26 12:30 | 38.85393 | -3.55665 | 36124 ft | 444 kts | 4° |
| 2026-04-26 12:30 | 38.91555 | -3.55059 | 36136 ft | 445 kts | 4° |
| 2026-04-26 12:31 | 39.08369 | -3.53400 | 36134 ft | 444 kts | 4° |
| 2026-04-26 12:31 | 39.33178 | -3.50923 | 36136 ft | 445 kts | 4° |
| 2026-04-26 12:32 | 39.57904 | -3.48435 | 36142 ft | 445 kts | 4° |
| 2026-04-26 12:33 | 39.94998 | -3.46446 | 36146 ft | 446 kts | 355° |
| 2026-04-26 12:33 | 40.19662 | -3.50730 | 36167 ft | 446 kts | 352° |
| 2026-04-26 12:34 | 40.43311 | -3.53559 | 36161 ft | 444 kts | 356° |
| 2026-04-26 12:34 | 40.68524 | -3.55384 | 36169 ft | 444 kts | 355° |
| 2026-04-26 12:35 | 40.93140 | -3.58076 | 36195 ft | 445 kts | 354° |
| 2026-04-26 12:35 | 41.17883 | -3.60875 | 36204 ft | 444 kts | 355° |
| 2026-04-26 12:36 | 41.42497 | -3.61705 | 36194 ft | 441 kts | 0° |
| 2026-04-26 12:36 | 41.66992 | -3.61252 | 36196 ft | 440 kts | 0° |
| 2026-04-26 12:37 | 41.91540 | -3.61321 | 36195 ft | 440 kts | 360° |
| 2026-04-26 12:37 | 42.16066 | -3.61731 | 36193 ft | 441 kts | 358° |
| 2026-04-26 12:38 | 42.40592 | -3.63842 | 36204 ft | 441 kts | 354° |
| 2026-04-26 12:38 | 42.64939 | -3.68855 | 36194 ft | 442 kts | 349° |
| 2026-04-26 12:39 | 42.89297 | -3.74263 | 36190 ft | 442 kts | 353° |
| 2026-04-26 12:39 | 43.13814 | -3.77757 | 36184 ft | 443 kts | 353° |
| 2026-04-26 12:40 | 43.38355 | -3.81850 | 36161 ft | 442 kts | 351° |
| 2026-04-26 12:40 | 43.62780 | -3.86400 | 36155 ft | 445 kts | 351° |
| 2026-04-26 12:41 | 43.87412 | -3.90684 | 36165 ft | 447 kts | 352° |
| 2026-04-26 12:41 | 44.12181 | -3.95004 | 36174 ft | 449 kts | 351° |
| 2026-04-26 12:42 | 44.36971 | -3.98341 | 36152 ft | 451 kts | 3° |
| 2026-04-26 12:42 | 44.49233 | -3.94188 | 36169 ft | 456 kts | 23° |
| 2026-04-26 12:42 | 44.59822 | -3.84237 | 36183 ft | 460 kts | 43° |
| 2026-04-26 12:43 | 44.74773 | -3.58621 | 36168 ft | 462 kts | 47° |
| 2026-04-26 12:43 | 44.79485 | -3.52614 | 36171 ft | 458 kts | 35° |
| 2026-04-26 12:44 | 44.84677 | -3.47461 | 36171 ft | 457 kts | 32° |
| 2026-04-26 12:44 | 44.89941 | -3.42453 | 36173 ft | 458 kts | 32° |
| 2026-04-26 12:45 | 44.95158 | -3.37408 | 36172 ft | 458 kts | 33° |
| 2026-04-26 12:45 | 45.00395 | -3.32251 | 36171 ft | 459 kts | 33° |
| 2026-04-26 12:46 | 45.05621 | -3.27051 | 36174 ft | 459 kts | 33° |
| 2026-04-26 12:46 | 45.10820 | -3.21846 | 36173 ft | 459 kts | 33° |
| 2026-04-26 12:47 | 45.16009 | -3.16632 | 36179 ft | 459 kts | 33° |
| 2026-04-26 12:47 | 45.21211 | -3.11389 | 36177 ft | 459 kts | 34° |
| 2026-04-26 12:48 | 45.26387 | -3.06158 | 36177 ft | 458 kts | 34° |
| 2026-04-26 12:48 | 45.31568 | -3.00909 | 36178 ft | 459 kts | 34° |
| 2026-04-26 12:49 | 45.36758 | -2.95642 | 36181 ft | 460 kts | 34° |
| 2026-04-26 12:49 | 45.41963 | -2.90349 | 36186 ft | 460 kts | 33° |
| 2026-04-26 12:50 | 45.47130 | -2.85082 | 36185 ft | 460 kts | 33° |
| 2026-04-26 12:50 | 45.52332 | -2.79831 | 36184 ft | 459 kts | 33° |
| 2026-04-26 12:51 | 45.57529 | -2.74504 | 36186 ft | 459 kts | 33° |
| 2026-04-26 12:51 | 45.62677 | -2.69190 | 36187 ft | 459 kts | 34° |
| 2026-04-26 12:52 | 45.67858 | -2.63837 | 36191 ft | 460 kts | 33° |
| 2026-04-26 12:52 | 45.73028 | -2.58496 | 36191 ft | 459 kts | 33° |
| 2026-04-26 12:53 | 45.78187 | -2.53162 | 36191 ft | 460 kts | 33° |
| 2026-04-26 12:53 | 45.83350 | -2.47812 | 36193 ft | 460 kts | 33° |
| 2026-04-26 12:54 | 45.88542 | -2.42420 | 36193 ft | 460 kts | 33° |
| 2026-04-26 12:54 | 45.93728 | -2.37023 | 36193 ft | 459 kts | 33° |
| 2026-04-26 12:55 | 45.98892 | -2.31635 | 36194 ft | 459 kts | 34° |
| 2026-04-26 12:55 | 46.04025 | -2.26261 | 36193 ft | 460 kts | 34° |
| 2026-04-26 12:56 | 46.09278 | -2.20953 | 36193 ft | 460 kts | 32° |
| 2026-04-26 12:56 | 46.14625 | -2.15927 | 36193 ft | 460 kts | 31° |
| 2026-04-26 12:57 | 46.19997 | -2.10932 | 36189 ft | 460 kts | 31° |
| 2026-04-26 12:57 | 46.25355 | -2.05909 | 36189 ft | 460 kts | 31° |
| 2026-04-26 12:58 | 46.33360 | -1.98321 | 36191 ft | 459 kts | 31° |
| 2026-04-26 12:58 | 46.38681 | -1.93241 | 36184 ft | 458 kts | 31° |
| 2026-04-26 12:59 | 46.43983 | -1.88153 | 36187 ft | 459 kts | 31° |
| 2026-04-26 12:59 | 46.49266 | -1.83076 | 36182 ft | 458 kts | 31° |
| 2026-04-26 13:00 | 46.54581 | -1.77959 | 36179 ft | 459 kts | 31° |
| 2026-04-26 13:00 | 46.59883 | -1.72842 | 36177 ft | 458 kts | 31° |
| 2026-04-26 13:01 | 46.65226 | -1.67687 | 36178 ft | 459 kts | 31° |
| 2026-04-26 13:01 | 46.70503 | -1.62582 | 36181 ft | 458 kts | 31° |
| 2026-04-26 13:02 | 46.75813 | -1.57424 | 36181 ft | 458 kts | 31° |
| 2026-04-26 13:02 | 46.81083 | -1.52296 | 36181 ft | 457 kts | 31° |
| 2026-04-26 13:03 | 46.86368 | -1.47142 | 36179 ft | 457 kts | 31° |
| 2026-04-26 13:03 | 46.91640 | -1.41987 | 36183 ft | 457 kts | 31° |
| 2026-04-26 13:04 | 46.96765 | -1.36516 | 36175 ft | 458 kts | 37° |
| 2026-04-26 13:04 | 47.01365 | -1.30001 | 36178 ft | 461 kts | 45° |
| 2026-04-26 13:05 | 47.05661 | -1.23042 | 36181 ft | 463 kts | 46° |
| 2026-04-26 13:05 | 47.09904 | -1.15979 | 36183 ft | 463 kts | 46° |
| 2026-04-26 13:06 | 47.14155 | -1.08908 | 36184 ft | 461 kts | 46° |
| 2026-04-26 13:06 | 47.18404 | -1.01867 | 36186 ft | 461 kts | 46° |
| 2026-04-26 13:07 | 47.22635 | -0.94865 | 36190 ft | 461 kts | 46° |
| 2026-04-26 13:07 | 47.26893 | -0.87814 | 36188 ft | 459 kts | 46° |
| 2026-04-26 13:08 | 47.31113 | -0.80817 | 36192 ft | 460 kts | 46° |
| 2026-04-26 13:08 | 47.35357 | -0.73763 | 36193 ft | 460 kts | 46° |
| 2026-04-26 13:09 | 47.39608 | -0.66680 | 36193 ft | 460 kts | 45° |
| 2026-04-26 13:09 | 47.43909 | -0.59775 | 36193 ft | 459 kts | 41° |
| 2026-04-26 13:10 | 47.48725 | -0.53742 | 36192 ft | 456 kts | 34° |
| 2026-04-26 13:10 | 47.53830 | -0.48148 | 36200 ft | 456 kts | 33° |
| 2026-04-26 13:11 | 47.58934 | -0.42652 | 36202 ft | 455 kts | 33° |
| 2026-04-26 13:11 | 47.63932 | -0.37197 | 36203 ft | 442 kts | 33° |
| 2026-04-26 13:12 | 47.68933 | -0.31685 | 36198 ft | 449 kts | 34° |
| 2026-04-26 13:12 | 47.73886 | -0.26191 | 36196 ft | 451 kts | 34° |
| 2026-04-26 13:13 | 47.78949 | -0.20554 | 36191 ft | 458 kts | 34° |
| 2026-04-26 13:13 | 47.84047 | -0.14848 | 36195 ft | 457 kts | 34° |
| 2026-04-26 13:14 | 47.89087 | -0.09190 | 36197 ft | 457 kts | 34° |
| 2026-04-26 13:14 | 47.94141 | -0.03501 | 36199 ft | 456 kts | 34° |
| 2026-04-26 13:15 | 47.99203 | 0.02211 | 36202 ft | 456 kts | 34° |
| 2026-04-26 13:15 | 48.04242 | 0.07909 | 36206 ft | 456 kts | 33° |
| 2026-04-26 13:16 | 48.09275 | 0.13615 | 36207 ft | 456 kts | 34° |
| 2026-04-26 13:16 | 48.14333 | 0.19362 | 36210 ft | 456 kts | 34° |
| 2026-04-26 13:17 | 48.21886 | 0.27979 | 36210 ft | 455 kts | 34° |
| 2026-04-26 13:18 | 48.29417 | 0.36597 | 36210 ft | 455 kts | 34° |
| 2026-04-26 13:19 | 48.36935 | 0.45232 | 36215 ft | 455 kts | 34° |
| 2026-04-26 13:19 | 48.41911 | 0.50969 | 36216 ft | 454 kts | 34° |
| 2026-04-26 13:20 | 48.46945 | 0.56787 | 36217 ft | 455 kts | 34° |
| 2026-04-26 13:20 | 48.51930 | 0.62560 | 36221 ft | 454 kts | 34° |
| 2026-04-26 13:21 | 48.56862 | 0.68287 | 36227 ft | 454 kts | 35° |
| 2026-04-26 13:21 | 48.61832 | 0.74073 | 36229 ft | 454 kts | 34° |
| 2026-04-26 13:22 | 48.66785 | 0.79855 | 36230 ft | 454 kts | 34° |
| 2026-04-26 13:22 | 48.71753 | 0.85671 | 36229 ft | 454 kts | 34° |
| 2026-04-26 13:23 | 48.76755 | 0.91520 | 36232 ft | 454 kts | 34° |
| 2026-04-26 13:23 | 48.81771 | 0.97306 | 36230 ft | 453 kts | 34° |
| 2026-04-26 13:24 | 48.86800 | 1.03084 | 36239 ft | 453 kts | 34° |
| 2026-04-26 13:24 | 48.91799 | 1.08847 | 36238 ft | 452 kts | 33° |
| 2026-04-26 13:25 | 48.96794 | 1.14629 | 36240 ft | 452 kts | 34° |
| 2026-04-26 13:25 | 49.01788 | 1.20429 | 36245 ft | 452 kts | 34° |
| 2026-04-26 13:26 | 49.06588 | 1.26582 | 36247 ft | 454 kts | 39° |
| 2026-04-26 13:26 | 49.11176 | 1.33223 | 36245 ft | 455 kts | 40° |
| 2026-04-26 13:27 | 49.15725 | 1.39941 | 36242 ft | 454 kts | 40° |
| 2026-04-26 13:27 | 49.20251 | 1.46601 | 36243 ft | 454 kts | 40° |
| 2026-04-26 13:28 | 49.24802 | 1.53265 | 36242 ft | 453 kts | 40° |
| 2026-04-26 13:28 | 49.29329 | 1.59882 | 36243 ft | 454 kts | 39° |
| 2026-04-26 13:29 | 49.33876 | 1.66522 | 36245 ft | 453 kts | 40° |
| 2026-04-26 13:29 | 49.38410 | 1.73159 | 36244 ft | 453 kts | 40° |
| 2026-04-26 13:30 | 49.42956 | 1.79831 | 36245 ft | 453 kts | 40° |
| 2026-04-26 13:30 | 49.47508 | 1.86532 | 36246 ft | 452 kts | 40° |
| 2026-04-26 13:31 | 49.52049 | 1.93233 | 36247 ft | 452 kts | 40° |
| 2026-04-26 13:31 | 49.56583 | 1.99949 | 36245 ft | 452 kts | 40° |
| 2026-04-26 13:32 | 49.61122 | 2.06683 | 36241 ft | 453 kts | 40° |
| 2026-04-26 13:32 | 49.65632 | 2.13394 | 36239 ft | 452 kts | 40° |
| 2026-04-26 13:33 | 49.70152 | 2.20139 | 36238 ft | 452 kts | 40° |
| 2026-04-26 13:33 | 49.74649 | 2.26867 | 36238 ft | 452 kts | 40° |
| 2026-04-26 13:34 | 49.79143 | 2.33610 | 36215 ft | 449 kts | 40° |
| 2026-04-26 13:34 | 49.81367 | 2.36957 | 35750 ft | 447 kts | 40° |
| 2026-04-26 13:34 | 49.83598 | 2.40316 | 34851 ft | 455 kts | 40° |
| 2026-04-26 13:34 | 49.85103 | 2.42575 | 34161 ft | 458 kts | 39° |
| 2026-04-26 13:35 | 49.88323 | 2.46773 | 33055 ft | 454 kts | 32° |
| 2026-04-26 13:35 | 49.90961 | 2.49434 | 32109 ft | 453 kts | 26° |
| 2026-04-26 13:35 | 49.93730 | 2.51739 | 31171 ft | 453 kts | 23° |
| 2026-04-26 13:35 | 49.96542 | 2.53894 | 30208 ft | 454 kts | 22° |
| 2026-04-26 13:36 | 49.99365 | 2.56045 | 29147 ft | 458 kts | 22° |
| 2026-04-26 13:36 | 50.02197 | 2.58262 | 28104 ft | 460 kts | 24° |
| 2026-04-26 13:36 | 50.05008 | 2.60543 | 27023 ft | 464 kts | 25° |
| 2026-04-26 13:36 | 50.07843 | 2.62920 | 25865 ft | 467 kts | 25° |
| 2026-04-26 13:37 | 50.09427 | 2.64277 | 25339 ft | 465 kts | 26° |
| 2026-04-26 13:37 | 50.12252 | 2.66739 | 24506 ft | 461 kts | 27° |
| 2026-04-26 13:37 | 50.15021 | 2.69188 | 23820 ft | 455 kts | 27° |
| 2026-04-26 13:37 | 50.17723 | 2.71598 | 23067 ft | 451 kts | 27° |
| 2026-04-26 13:38 | 50.20413 | 2.74010 | 22335 ft | 446 kts | 28° |
| 2026-04-26 13:38 | 50.23093 | 2.76422 | 21592 ft | 442 kts | 28° |
| 2026-04-26 13:38 | 50.25706 | 2.78778 | 20864 ft | 438 kts | 28° |
| 2026-04-26 13:38 | 50.28314 | 2.81133 | 20134 ft | 434 kts | 28° |
| 2026-04-26 13:39 | 50.30906 | 2.83476 | 19421 ft | 430 kts | 28° |
| 2026-04-26 13:39 | 50.33488 | 2.85814 | 18699 ft | 426 kts | 28° |
| 2026-04-26 13:39 | 50.36015 | 2.88107 | 17978 ft | 422 kts | 28° |
| 2026-04-26 13:39 | 50.38526 | 2.90389 | 17299 ft | 417 kts | 28° |
| 2026-04-26 13:40 | 50.41022 | 2.92659 | 16610 ft | 412 kts | 28° |
| 2026-04-26 13:40 | 50.43478 | 2.94895 | 15917 ft | 408 kts | 28° |
| 2026-04-26 13:40 | 50.45921 | 2.97122 | 15229 ft | 404 kts | 28° |
| 2026-04-26 13:40 | 50.48325 | 2.99314 | 14541 ft | 399 kts | 28° |
| 2026-04-26 13:41 | 50.50683 | 3.01467 | 13864 ft | 395 kts | 29° |
| 2026-04-26 13:41 | 50.53045 | 3.03624 | 13195 ft | 390 kts | 29° |
| 2026-04-26 13:41 | 50.55358 | 3.05736 | 12521 ft | 386 kts | 29° |
| 2026-04-26 13:41 | 50.57657 | 3.07834 | 11851 ft | 381 kts | 29° |
| 2026-04-26 13:42 | 50.59953 | 3.09935 | 11138 ft | 378 kts | 29° |
| 2026-04-26 13:42 | 50.62208 | 3.12004 | 10523 ft | 373 kts | 30° |
| 2026-04-26 13:42 | 50.64408 | 3.14026 | 10303 ft | 366 kts | 30° |
| 2026-04-26 13:42 | 50.66620 | 3.16059 | 10283 ft | 368 kts | 30° |
| 2026-04-26 13:43 | 50.68792 | 3.18061 | 10273 ft | 351 kts | 30° |
| 2026-04-26 13:43 | 50.70837 | 3.19950 | 10272 ft | 331 kts | 30° |
| 2026-04-26 13:43 | 50.72751 | 3.21722 | 10273 ft | 312 kts | 30° |
| 2026-04-26 13:43 | 50.74587 | 3.23424 | 10270 ft | 295 kts | 29° |
| 2026-04-26 13:44 | 50.76308 | 3.25021 | 10267 ft | 279 kts | 30° |
| 2026-04-26 13:44 | 50.77924 | 3.26519 | 10270 ft | 264 kts | 30° |
| 2026-04-26 13:44 | 50.79480 | 3.27964 | 10269 ft | 252 kts | 29° |
| 2026-04-26 13:44 | 50.80962 | 3.29338 | 10270 ft | 249 kts | 29° |
| 2026-04-26 13:45 | 50.82463 | 3.30730 | 10270 ft | 251 kts | 29° |
| 2026-04-26 13:45 | 50.83982 | 3.32139 | 10268 ft | 252 kts | 29° |
| 2026-04-26 13:45 | 50.85510 | 3.33487 | 10272 ft | 252 kts | 27° |
| 2026-04-26 13:45 | 50.87058 | 3.34765 | 10279 ft | 252 kts | 26° |
| 2026-04-26 13:46 | 50.88602 | 3.36032 | 10280 ft | 252 kts | 26° |
| 2026-04-26 13:46 | 50.90151 | 3.37324 | 10274 ft | 252 kts | 27° |
| 2026-04-26 13:46 | 50.91708 | 3.38639 | 10275 ft | 252 kts | 27° |
| 2026-04-26 13:46 | 50.93257 | 3.39955 | 10286 ft | 253 kts | 27° |
| 2026-04-26 13:47 | 50.94796 | 3.41263 | 10274 ft | 252 kts | 27° |
| 2026-04-26 13:47 | 50.96348 | 3.42585 | 10270 ft | 253 kts | 27° |
| 2026-04-26 13:47 | 50.97913 | 3.43917 | 10270 ft | 253 kts | 27° |
| 2026-04-26 13:47 | 50.99452 | 3.45229 | 10271 ft | 253 kts | 27° |
| 2026-04-26 13:48 | 51.01006 | 3.46554 | 10271 ft | 252 kts | 27° |
| 2026-04-26 13:48 | 51.02536 | 3.47858 | 10277 ft | 252 kts | 27° |
| 2026-04-26 13:48 | 51.04089 | 3.49184 | 10276 ft | 252 kts | 27° |
| 2026-04-26 13:48 | 51.05635 | 3.50504 | 10270 ft | 251 kts | 27° |
| 2026-04-26 13:49 | 51.07169 | 3.51815 | 10283 ft | 252 kts | 27° |
| 2026-04-26 13:49 | 51.08709 | 3.53133 | 10280 ft | 253 kts | 27° |
| 2026-04-26 13:49 | 51.10262 | 3.54463 | 10289 ft | 252 kts | 27° |
| 2026-04-26 13:49 | 51.11810 | 3.55788 | 10286 ft | 252 kts | 26° |
| 2026-04-26 13:50 | 51.13354 | 3.57110 | 10287 ft | 252 kts | 27° |
| 2026-04-26 13:50 | 51.14889 | 3.58425 | 10282 ft | 253 kts | 27° |
| 2026-04-26 13:50 | 51.16443 | 3.59759 | 10295 ft | 253 kts | 27° |
| 2026-04-26 13:50 | 51.17982 | 3.61082 | 10289 ft | 252 kts | 27° |
| 2026-04-26 13:51 | 51.19524 | 3.62407 | 10296 ft | 251 kts | 26° |
| 2026-04-26 13:51 | 51.21066 | 3.63732 | 10293 ft | 251 kts | 26° |
| 2026-04-26 13:51 | 51.22595 | 3.65047 | 10288 ft | 250 kts | 27° |
| 2026-04-26 13:51 | 51.24128 | 3.66367 | 10279 ft | 251 kts | 27° |
| 2026-04-26 13:52 | 51.25666 | 3.67694 | 10284 ft | 251 kts | 27° |
| 2026-04-26 13:52 | 51.27198 | 3.69020 | 10277 ft | 251 kts | 27° |
| 2026-04-26 13:52 | 51.28736 | 3.70351 | 10278 ft | 249 kts | 27° |
| 2026-04-26 13:52 | 51.30244 | 3.71656 | 10023 ft | 248 kts | 27° |
| 2026-04-26 13:53 | 51.31765 | 3.72970 | 9652 ft | 249 kts | 27° |
| 2026-04-26 13:53 | 51.33270 | 3.74272 | 9306 ft | 249 kts | 27° |
| 2026-04-26 13:53 | 51.34792 | 3.75592 | 9022 ft | 247 kts | 27° |
| 2026-04-26 13:53 | 51.36301 | 3.76902 | 8706 ft | 246 kts | 27° |
| 2026-04-26 13:54 | 51.37785 | 3.78190 | 8392 ft | 245 kts | 27° |
| 2026-04-26 13:54 | 51.39281 | 3.79486 | 8096 ft | 243 kts | 27° |
| 2026-04-26 13:54 | 51.40747 | 3.80760 | 7775 ft | 242 kts | 27° |
| 2026-04-26 13:55 | 51.43697 | 3.83329 | 7167 ft | 240 kts | 28° |
| 2026-04-26 13:55 | 51.44672 | 3.84178 | 6978 ft | 239 kts | 27° |
| 2026-04-26 13:55 | 51.48040 | 3.87115 | 6321 ft | 234 kts | 28° |
| 2026-04-26 13:56 | 51.49459 | 3.88356 | 6300 ft | 233 kts | 28° |
| 2026-04-26 13:56 | 51.50885 | 3.89602 | 6301 ft | 237 kts | 28° |
| 2026-04-26 13:56 | 51.52348 | 3.90882 | 6300 ft | 237 kts | 28° |
| 2026-04-26 13:56 | 51.53786 | 3.92141 | 6304 ft | 237 kts | 28° |
| 2026-04-26 13:57 | 51.55216 | 3.93396 | 6129 ft | 232 kts | 28° |
| 2026-04-26 13:57 | 51.56652 | 3.94655 | 5760 ft | 234 kts | 28° |
| 2026-04-26 13:57 | 51.58069 | 3.95898 | 5485 ft | 233 kts | 28° |
| 2026-04-26 13:57 | 51.59478 | 3.97135 | 5197 ft | 231 kts | 28° |
| 2026-04-26 13:58 | 51.60892 | 3.98375 | 4898 ft | 230 kts | 28° |
| 2026-04-26 13:58 | 51.62280 | 3.99594 | 4601 ft | 229 kts | 29° |
| 2026-04-26 13:58 | 51.63665 | 4.00813 | 4308 ft | 228 kts | 29° |
| 2026-04-26 13:58 | 51.65050 | 4.02032 | 4038 ft | 226 kts | 29° |
| 2026-04-26 13:59 | 51.66432 | 4.03249 | 3728 ft | 225 kts | 29° |
| 2026-04-26 13:59 | 51.67802 | 4.04458 | 3429 ft | 225 kts | 30° |
| 2026-04-26 13:59 | 51.69167 | 4.05662 | 3138 ft | 224 kts | 30° |
| 2026-04-26 14:00 | 51.73215 | 4.09241 | 2332 ft | 219 kts | 30° |
| 2026-04-26 14:00 | 51.74542 | 4.10414 | 2058 ft | 218 kts | 30° |
| 2026-04-26 14:00 | 51.75415 | 4.11187 | 1985 ft | 211 kts | 30° |
| 2026-04-26 14:01 | 51.77084 | 4.12663 | 1984 ft | 205 kts | 30° |
| 2026-04-26 14:01 | 51.78348 | 4.13785 | 1984 ft | 207 kts | 30° |
| 2026-04-26 14:01 | 51.79619 | 4.14914 | 1984 ft | 208 kts | 30° |
| 2026-04-26 14:01 | 51.80882 | 4.16035 | 1980 ft | 208 kts | 30° |
| 2026-04-26 14:02 | 51.82150 | 4.17161 | 1984 ft | 207 kts | 30° |
| 2026-04-26 14:02 | 51.83400 | 4.18272 | 1980 ft | 208 kts | 30° |
| 2026-04-26 14:02 | 51.84658 | 4.19391 | 2004 ft | 206 kts | 30° |
| 2026-04-26 14:02 | 51.85853 | 4.20649 | 1982 ft | 203 kts | 42° |
| 2026-04-26 14:03 | 51.86760 | 4.22276 | 1984 ft | 188 kts | 53° |
| 2026-04-26 14:03 | 51.87527 | 4.23968 | 1996 ft | 186 kts | 55° |
| 2026-04-26 14:03 | 51.88262 | 4.25681 | 1989 ft | 186 kts | 56° |
| 2026-04-26 14:03 | 51.88977 | 4.27404 | 1984 ft | 185 kts | 57° |
| 2026-04-26 14:04 | 51.89668 | 4.29094 | 1996 ft | 169 kts | 57° |
| 2026-04-26 14:04 | 51.90307 | 4.30666 | 1818 ft | 169 kts | 57° |
| 2026-04-26 14:04 | 51.90944 | 4.32235 | 1591 ft | 166 kts | 57° |
| 2026-04-26 14:04 | 51.91565 | 4.33768 | 1368 ft | 161 kts | 58° |
| 2026-04-26 14:05 | 51.92176 | 4.35277 | 1166 ft | 165 kts | 57° |
| 2026-04-26 14:05 | 51.92775 | 4.36768 | 963 ft | 149 kts | 56° |
| 2026-04-26 14:05 | 51.93325 | 4.38140 | 705 ft | 141 kts | 57° |
| 2026-04-26 14:05 | 51.93843 | 4.39430 | 542 ft | 137 kts | 55° |
| 2026-04-26 14:06 | 51.94379 | 4.40736 | 387 ft | 139 kts | 58° |
| 2026-04-26 14:06 | 51.94907 | 4.42070 | 181 ft | 141 kts | 56° |
| 2026-04-26 14:06 | 51.95436 | 4.43388 | 3 ft | 138 kts | 59° |
| 2026-04-26 14:06 | 51.95859 | 4.44457 | -9 ft | 67 kts | 56° |
| 2026-04-26 14:07 | 51.96062 | 4.44967 | -9 ft | 45 kts | 55° |
| 2026-04-26 14:07 | 51.96157 | 4.45247 | -6 ft | 21 kts | 95° |
| 2026-04-26 14:07 | 51.96104 | 4.45379 | -6 ft | 9 kts | 142° |
| 2026-04-26 14:07 | 51.96045 | 4.45387 | -6 ft | 8 kts | 213° |
| 2026-04-26 14:08 | 51.96007 | 4.45312 | -6 ft | 8 kts | 236° |
| 2026-04-26 14:08 | 51.95976 | 4.45233 | -7 ft | 8 kts | 237° |
| 2026-04-26 14:08 | 51.95943 | 4.45150 | -7 ft | 8 kts | 237° |
| 2026-04-26 14:08 | 51.95913 | 4.45075 | -8 ft | 10 kts | 236° |
| 2026-04-26 14:09 | 51.95865 | 4.44958 | -9 ft | 15 kts | 236° |
| 2026-04-26 14:09 | 51.95797 | 4.44791 | -10 ft | 18 kts | 237° |
| 2026-04-26 14:09 | 51.95728 | 4.44616 | -11 ft | 18 kts | 237° |
| 2026-04-26 14:09 | 51.95659 | 4.44443 | -9 ft | 17 kts | 236° |
| 2026-04-26 14:10 | 51.95594 | 4.44280 | -8 ft | 16 kts | 237° |
| 2026-04-26 14:10 | 51.95522 | 4.44104 | -6 ft | 20 kts | 235° |
| 2026-04-26 14:10 | 51.95432 | 4.43919 | -6 ft | 16 kts | 228° |
| 2026-04-26 14:10 | 51.95409 | 4.43866 | -6 ft | 0 kts | 260° |
| 2026-04-26 14:11 | 51.95364 | 4.43705 | -6 ft | 19 kts | 236° |
| 2026-04-26 14:11 | 51.95287 | 4.43525 | -6 ft | 17 kts | 213° |
| 2026-04-26 14:11 | 51.95186 | 4.43571 | -6 ft | 15 kts | 146° |
| 2026-04-26 14:12 | 51.95112 | 4.43612 | -6 ft | 8 kts | 234° |
| 2026-04-26 14:12 | 51.95087 | 4.43566 | -5 ft | 1 kts | 232° |
| 2026-04-26 14:12 | 51.95090 | 4.43573 | -6 ft | 0 kts | 229° |
| 2026-04-26 14:12 | 51.95084 | 4.43560 | -4 ft | 2 kts | 232° |
| 2026-04-26 14:13 | 51.95114 | 4.43484 | -3 ft | 0 kts | 326° |